createdAt,value
2018-08-30T00:00:42.873Z,80.65
2018-08-30T00:03:11.985Z,80.66
2018-08-30T00:05:41.252Z,80.91
2018-08-30T00:08:10.352Z,80.97
2018-08-30T00:10:39.199Z,80.82
2018-08-30T00:13:08.112Z,80.50
2018-08-30T00:15:36.976Z,80.26
2018-08-30T00:18:05.852Z,80.53
2018-08-30T00:20:34.760Z,80.53
2018-08-30T00:23:03.662Z,80.57
2018-08-30T00:25:32.556Z,80.52
2018-08-30T00:28:01.434Z,80.40
2018-08-30T00:30:30.305Z,80.44
2018-08-30T00:32:59.140Z,80.08
2018-08-30T00:35:28.014Z,80.65
2018-08-30T00:37:56.870Z,80.51
2018-08-30T00:40:25.722Z,80.42
2018-08-30T00:42:54.564Z,80.38
2018-08-30T00:45:23.445Z,81.14
2018-08-30T00:47:52.288Z,81.09
2018-08-30T00:50:21.234Z,81.43
2018-08-30T00:52:50.070Z,81.58
2018-08-30T00:55:18.920Z,80.14
2018-08-30T00:57:47.812Z,81.25
2018-08-30T01:00:16.739Z,81.41
2018-08-30T01:02:45.603Z,79.62
2018-08-30T01:05:14.548Z,80.83
2018-08-30T01:07:43.418Z,81.09
2018-08-30T01:10:12.276Z,81.34
2018-08-30T01:12:53.250Z,81.71
2018-08-30T01:15:23.626Z,82.07
2018-08-30T01:17:52.569Z,81.99
2018-08-30T01:20:21.950Z,82.09
2018-08-30T01:22:50.835Z,82.09
2018-08-30T01:25:19.809Z,81.28
2018-08-30T01:27:48.946Z,82.19
2018-08-30T01:30:18.807Z,82.15
2018-08-30T01:32:47.700Z,82.30
2018-08-30T01:35:16.560Z,80.45
2018-08-30T01:37:45.434Z,81.86
2018-08-30T01:40:14.326Z,82.14
2018-08-30T01:42:43.203Z,82.18
2018-08-30T01:45:12.097Z,82.17
2018-08-30T01:47:40.971Z,80.49
2018-08-30T01:50:09.907Z,81.77
2018-08-30T01:52:38.762Z,81.86
2018-08-30T01:55:07.657Z,81.91
2018-08-30T01:57:36.529Z,80.03
2018-08-30T02:00:05.440Z,81.41
2018-08-30T02:02:34.307Z,81.49
2018-08-30T02:05:03.215Z,81.71
2018-08-30T02:07:32.093Z,82.07
2018-08-30T02:10:01.084Z,80.74
2018-08-30T02:12:29.997Z,81.62
2018-08-30T02:14:58.801Z,81.78
2018-08-30T02:17:27.671Z,82.19
2018-08-30T02:19:56.541Z,82.34
2018-08-30T02:22:25.385Z,82.58
2018-08-30T02:24:54.251Z,82.51
2018-08-30T02:27:23.164Z,82.50
2018-08-30T02:29:52.035Z,82.60
2018-08-30T02:32:20.946Z,82.51
2018-08-30T02:34:49.828Z,82.44
2018-08-30T02:37:18.704Z,82.58
2018-08-30T02:39:47.578Z,82.65
2018-08-30T02:42:16.451Z,82.73
2018-08-30T02:44:45.311Z,82.76
2018-08-30T02:47:14.185Z,82.86
2018-08-30T02:49:43.063Z,82.70
2018-08-30T02:52:11.938Z,82.61
2018-08-30T02:54:40.818Z,82.97
2018-08-30T02:57:09.660Z,81.39
2018-08-30T02:59:38.521Z,82.29
2018-08-30T03:02:07.409Z,82.37
2018-08-30T03:04:36.271Z,82.65
2018-08-30T03:07:05.125Z,80.98
2018-08-30T03:09:34.025Z,82.11
2018-08-30T03:12:02.898Z,82.52
2018-08-30T03:14:31.756Z,82.36
2018-08-30T03:17:00.632Z,82.50
2018-08-30T03:19:29.497Z,82.55
2018-08-30T03:21:58.357Z,82.48
2018-08-30T03:24:27.224Z,82.51
2018-08-30T03:26:56.149Z,82.67
2018-08-30T03:29:25.024Z,82.80
2018-08-30T03:31:53.922Z,82.83
2018-08-30T03:34:22.768Z,82.80
2018-08-30T03:36:51.641Z,82.93
2018-08-30T03:39:20.484Z,83.21
2018-08-30T03:41:49.357Z,83.20
2018-08-30T03:44:18.223Z,83.01
2018-08-30T03:46:47.099Z,83.17
2018-08-30T03:49:15.928Z,83.10
2018-08-30T03:51:44.818Z,83.24
2018-08-30T03:54:13.685Z,81.86
2018-08-30T03:56:42.570Z,82.94
2018-08-30T03:59:11.482Z,82.63
2018-08-30T04:01:40.362Z,82.44
2018-08-30T04:04:09.229Z,80.93
2018-08-30T04:06:38.070Z,81.89
2018-08-30T04:09:08.032Z,82.01
2018-08-30T04:11:36.962Z,82.38
2018-08-30T04:14:05.897Z,82.45
2018-08-30T04:16:34.768Z,82.34
2018-08-30T04:19:07.723Z,82.50
2018-08-30T04:21:37.298Z,82.44
2018-08-30T04:24:07.569Z,80.78
2018-08-30T04:26:36.423Z,82.13
2018-08-30T04:29:05.390Z,82.05
2018-08-30T04:31:34.425Z,81.98
2018-08-30T04:34:03.163Z,82.31
2018-08-30T04:36:32.044Z,82.39
2018-08-30T04:39:00.915Z,82.56
2018-08-30T04:41:29.785Z,82.78
2018-08-30T04:43:58.664Z,82.76
2018-08-30T04:46:27.527Z,82.81
2018-08-30T04:48:56.413Z,83.10
2018-08-30T04:51:25.278Z,82.87
2018-08-30T04:53:54.163Z,82.96
2018-08-30T04:56:23.025Z,83.25
2018-08-30T04:58:51.863Z,83.12
2018-08-30T05:01:20.749Z,83.12
2018-08-30T05:03:49.618Z,82.72
2018-08-30T05:06:18.480Z,82.43
2018-08-30T05:08:47.366Z,82.57
2018-08-30T05:11:16.238Z,82.65
2018-08-30T05:13:45.127Z,82.51
2018-08-30T05:16:14.000Z,82.43
2018-08-30T05:18:42.865Z,82.59
2018-08-30T05:21:11.757Z,82.80
2018-08-30T05:23:40.631Z,82.56
2018-08-30T05:26:09.547Z,82.54
2018-08-30T05:28:38.437Z,82.25
2018-08-30T05:31:07.316Z,80.86
2018-08-30T05:36:14.053Z,81.66
2018-08-30T05:38:42.916Z,81.44
2018-08-30T05:41:11.750Z,81.35
2018-08-30T05:43:40.584Z,81.26
2018-08-30T05:46:09.503Z,81.37
2018-08-30T05:48:38.380Z,79.94
2018-08-30T05:51:07.842Z,81.14
2018-08-30T05:53:36.713Z,80.82
2018-08-30T05:56:05.578Z,80.38
2018-08-30T05:58:34.456Z,80.26
2018-08-30T06:01:03.350Z,80.04
2018-08-30T06:03:32.165Z,79.61
2018-08-30T06:06:01.029Z,80.25
2018-08-30T06:08:29.975Z,79.92
2018-08-30T06:10:58.737Z,79.59
2018-08-30T06:13:27.583Z,79.47
2018-08-30T06:15:56.414Z,79.31
2018-08-30T06:18:25.271Z,77.63
2018-08-30T06:20:54.130Z,78.31
2018-08-30T06:23:22.960Z,77.51
2018-08-30T06:25:51.949Z,76.73
2018-08-30T06:28:20.748Z,76.87
2018-08-30T06:30:49.619Z,76.50
2018-08-30T06:33:18.575Z,76.94
2018-08-30T06:35:47.440Z,77.26
2018-08-30T06:38:16.293Z,77.31
2018-08-30T06:40:45.132Z,77.58
2018-08-30T06:43:13.970Z,77.13
2018-08-30T06:45:42.859Z,76.74
2018-08-30T06:48:11.716Z,76.32
2018-08-30T06:50:40.545Z,75.40
2018-08-30T06:53:09.392Z,75.72
2018-08-30T06:55:38.273Z,73.22
2018-08-30T06:58:07.114Z,72.86
2018-08-30T07:00:36.118Z,72.63
2018-08-30T07:03:05.965Z,72.61
2018-08-30T07:05:34.834Z,72.68
2018-08-30T07:08:03.711Z,72.54
2018-08-30T07:10:32.578Z,71.83
2018-08-30T07:13:01.783Z,71.16
2018-08-30T07:15:30.631Z,70.97
2018-08-30T07:17:59.465Z,70.60
2018-08-30T07:20:28.341Z,71.07
2018-08-30T07:22:57.161Z,70.89
2018-08-30T07:25:26.024Z,69.90
2018-08-30T07:27:54.935Z,70.33
2018-08-30T07:30:23.771Z,69.57
2018-08-30T07:32:52.653Z,68.90
2018-08-30T07:35:21.513Z,68.44
2018-08-30T07:37:50.369Z,68.12
2018-08-30T07:40:19.295Z,66.47
2018-08-30T07:42:48.155Z,64.67
2018-08-30T07:45:16.968Z,62.56
2018-08-30T07:47:45.837Z,60.01
2018-08-30T07:50:14.701Z,59.11
2018-08-30T07:52:43.523Z,59.01
2018-08-30T07:55:12.400Z,58.31
2018-08-30T07:57:41.285Z,59.30
2018-08-30T08:00:10.155Z,57.68
2018-08-30T08:02:39.026Z,57.00
2018-08-30T08:05:07.876Z,51.47
2018-08-30T08:07:36.794Z,46.71
2018-08-30T08:10:05.763Z,43.51
2018-08-30T08:12:34.664Z,42.72
2018-08-30T08:15:03.433Z,41.62
2018-08-30T08:17:32.312Z,40.40
2018-08-30T08:20:01.126Z,38.04
2018-08-30T08:22:29.993Z,39.20
2018-08-30T08:24:58.833Z,39.57
2018-08-30T08:27:27.776Z,38.75
2018-08-30T08:29:56.621Z,37.64
2018-08-30T08:32:25.462Z,36.04
2018-08-30T08:34:54.332Z,32.56
2018-08-30T08:37:23.195Z,33.66
2018-08-30T08:39:52.008Z,31.90
2018-08-30T08:42:20.863Z,32.35
2018-08-30T08:44:49.691Z,32.15
2018-08-30T08:47:18.532Z,33.16
2018-08-30T08:49:47.394Z,33.52
2018-08-30T08:52:16.688Z,35.28
2018-08-30T08:54:45.545Z,33.48
2018-08-30T08:57:14.407Z,32.31
2018-08-30T08:59:43.240Z,32.98
2018-08-30T09:02:12.089Z,34.54
2018-08-30T09:04:40.948Z,36.46
2018-08-30T09:07:10.047Z,36.59
2018-08-30T09:09:38.773Z,39.72
2018-08-30T09:12:07.619Z,40.07
2018-08-30T09:14:36.489Z,44.63
2018-08-30T09:17:05.331Z,46.81
2018-08-30T09:19:34.157Z,47.47
2018-08-30T09:22:03.087Z,47.01
2018-08-30T09:24:31.916Z,48.38
2018-08-30T09:27:00.785Z,49.79
2018-08-30T09:29:29.594Z,48.81
2018-08-30T09:31:58.423Z,49.68
2018-08-30T09:34:27.285Z,51.66
2018-08-30T09:36:56.133Z,49.89
2018-08-30T09:39:24.970Z,47.88
2018-08-30T09:41:53.855Z,49.83
2018-08-30T09:44:22.682Z,49.81
2018-08-30T09:46:51.521Z,51.26
2018-08-30T09:49:20.416Z,51.02
2018-08-30T09:51:49.215Z,51.13
2018-08-30T09:54:18.103Z,50.94
2018-08-30T09:56:47.098Z,49.95
2018-08-30T09:59:15.863Z,48.40
2018-08-30T10:02:01.488Z,47.06
2018-08-30T10:04:31.015Z,42.33
2018-08-30T10:06:59.855Z,41.59
2018-08-30T10:09:28.687Z,39.28
2018-08-30T10:11:57.542Z,39.43
2018-08-30T10:14:27.881Z,37.41
2018-08-30T10:16:56.612Z,39.37
2018-08-30T10:19:25.486Z,39.38
2018-08-30T10:21:54.337Z,41.65
2018-08-30T10:24:23.223Z,42.83
2018-08-30T10:26:52.070Z,44.13
2018-08-30T10:29:20.981Z,44.11
2018-08-30T10:31:49.828Z,44.98
2018-08-30T10:34:18.688Z,46.17
2018-08-30T10:36:47.685Z,44.43
2018-08-30T10:39:16.540Z,43.42
2018-08-30T10:41:45.444Z,41.69
2018-08-30T10:44:14.371Z,39.06
2018-08-30T10:46:43.239Z,38.07
2018-08-30T10:49:12.075Z,37.46
2018-08-30T10:51:40.905Z,37.73
2018-08-30T10:54:09.804Z,38.60
2018-08-30T10:56:38.685Z,35.90
2018-08-30T10:59:07.619Z,34.03
2018-08-30T11:01:36.478Z,35.10
2018-08-30T11:04:05.683Z,35.40
2018-08-30T11:06:34.510Z,36.90
2018-08-30T11:09:03.491Z,36.59
2018-08-30T11:11:32.236Z,39.00
2018-08-30T11:14:01.090Z,41.17
2018-08-30T11:16:29.943Z,41.99
2018-08-30T11:18:58.868Z,41.73
2018-08-30T11:21:27.795Z,40.71
2018-08-30T11:23:56.686Z,41.66
2018-08-30T11:26:25.648Z,36.31
2018-08-30T11:28:54.574Z,34.65
2018-08-30T11:31:23.433Z,32.76
2018-08-30T11:33:52.266Z,35.83
2018-08-30T11:36:21.197Z,34.94
2018-08-30T11:38:50.090Z,36.37
2018-08-30T11:41:18.976Z,35.02
2018-08-30T11:43:48.064Z,34.52
2018-08-30T11:46:17.016Z,37.08
2018-08-30T11:48:45.848Z,37.24
2018-08-30T11:51:16.493Z,36.97
2018-08-30T11:53:45.784Z,39.66
2018-08-30T11:56:14.684Z,39.40
2018-08-30T11:58:43.522Z,40.08
2018-08-30T12:01:12.403Z,39.11
2018-08-30T12:03:41.398Z,39.22
2018-08-30T12:06:11.178Z,38.71
2018-08-30T12:08:39.999Z,37.73
2018-08-30T12:11:09.105Z,40.29
2018-08-30T12:13:37.760Z,40.25
2018-08-30T12:16:06.625Z,41.28
2018-08-30T12:18:35.475Z,41.52
2018-08-30T12:21:04.453Z,42.05
2018-08-30T12:23:33.336Z,44.27
2018-08-30T12:26:02.276Z,44.06
2018-08-30T12:28:31.175Z,45.75
2018-08-30T12:31:01.003Z,42.54
2018-08-30T12:33:29.839Z,41.72
2018-08-30T12:35:58.855Z,41.89
2018-08-30T12:38:27.602Z,43.21
2018-08-30T12:40:56.530Z,43.76
2018-08-30T12:43:25.593Z,41.68
2018-08-30T12:45:54.339Z,40.83
2018-08-30T12:48:23.187Z,39.30
2018-08-30T12:50:52.161Z,39.71
2018-08-30T12:53:21.028Z,39.82
2018-08-30T12:55:49.754Z,40.76
2018-08-30T12:58:18.701Z,40.35
2018-08-30T13:00:47.757Z,39.88
2018-08-30T13:03:16.706Z,39.69
2018-08-30T13:05:45.827Z,37.93
2018-08-30T13:08:14.564Z,39.86
2018-08-30T13:10:43.569Z,38.51
2018-08-30T13:13:12.519Z,37.51
2018-08-30T13:15:41.415Z,38.22
2018-08-30T13:18:10.400Z,38.15
2018-08-30T13:20:39.530Z,37.75
2018-08-30T13:23:08.209Z,36.98
2018-08-30T13:25:37.194Z,36.93
2018-08-30T13:28:05.989Z,37.64
2018-08-30T13:30:35.051Z,37.29
2018-08-30T13:33:03.936Z,39.75
2018-08-30T13:35:32.500Z,37.71
2018-08-30T13:38:01.875Z,36.21
2018-08-30T13:40:30.488Z,36.36
2018-08-30T13:42:59.449Z,38.09
2018-08-30T13:45:28.475Z,38.79
2018-08-30T13:47:57.465Z,40.09
2018-08-30T13:50:26.295Z,38.95
2018-08-30T13:52:55.049Z,39.10
2018-08-30T13:55:24.403Z,40.52
2018-08-30T13:57:53.320Z,40.83
2018-08-30T14:00:24.074Z,41.12
2018-08-30T14:02:52.716Z,40.51
2018-08-30T14:05:21.933Z,40.26
2018-08-30T14:07:50.511Z,40.61
2018-08-30T14:10:19.785Z,40.26
2018-08-30T14:12:49.036Z,39.90
2018-08-30T14:15:18.400Z,41.65
2018-08-30T14:17:46.776Z,41.60
2018-08-30T14:20:18.549Z,40.06
2018-08-30T14:22:54.872Z,41.96
2018-08-30T14:25:26.563Z,40.41
2018-08-30T14:27:55.821Z,38.81
2018-08-30T14:30:27.209Z,37.38
2018-08-30T14:32:56.431Z,38.31
2018-08-30T14:35:25.562Z,39.53
2018-08-30T14:37:57.422Z,39.48
2018-08-30T14:44:13.277Z,38.32
2018-08-30T14:46:51.081Z,39.04
2018-08-30T14:49:22.934Z,39.93
2018-08-30T14:51:52.179Z,41.69
2018-08-30T14:54:21.114Z,42.16
2018-08-30T14:56:50.178Z,42.14
2018-08-30T14:59:52.875Z,40.57
2018-08-30T15:02:21.889Z,41.25
2018-08-30T15:04:50.759Z,39.87
2018-08-30T15:07:19.593Z,38.93
2018-08-30T15:09:48.423Z,39.38
2018-08-30T15:12:17.328Z,40.65
2018-08-30T15:14:46.200Z,40.06
2018-08-30T15:17:15.043Z,40.45
2018-08-30T15:19:43.925Z,39.74
2018-08-30T15:22:12.813Z,40.38
2018-08-30T15:24:41.784Z,39.56
2018-08-30T15:27:10.972Z,38.67
2018-08-30T15:29:40.143Z,39.58
2018-08-30T15:32:08.899Z,40.26
2018-08-30T15:34:37.764Z,40.94
2018-08-30T15:37:06.581Z,40.24
2018-08-30T15:39:35.488Z,40.47
2018-08-30T15:42:04.268Z,40.90
2018-08-30T15:44:33.089Z,41.90
2018-08-30T15:47:01.949Z,41.76
2018-08-30T15:49:30.817Z,41.75
2018-08-30T15:51:59.675Z,41.40
2018-08-30T15:54:28.537Z,41.84
2018-08-30T15:56:57.565Z,42.47
2018-08-30T15:59:26.326Z,42.05
2018-08-30T16:01:55.048Z,43.29
2018-08-30T16:04:23.887Z,43.51
2018-08-30T16:06:52.840Z,43.60
2018-08-30T16:09:21.570Z,44.11
2018-08-30T16:11:50.420Z,44.88
2018-08-30T16:14:19.244Z,45.08
2018-08-30T16:16:48.080Z,45.03
2018-08-30T16:19:16.938Z,44.72
2018-08-30T16:21:45.772Z,45.00
2018-08-30T16:24:14.693Z,44.59
2018-08-30T16:26:43.453Z,44.72
2018-08-30T16:29:12.322Z,44.28
2018-08-30T16:31:41.117Z,43.97
2018-08-30T16:34:09.955Z,43.36
2018-08-30T16:36:38.797Z,43.92
2018-08-30T16:39:09.107Z,44.56
2018-08-30T16:41:37.980Z,44.94
2018-08-30T16:44:06.876Z,45.42
2018-08-30T16:46:35.708Z,44.94
2018-08-30T16:49:04.644Z,45.47
2018-08-30T16:51:33.465Z,44.48
2018-08-30T16:54:02.310Z,44.65
2018-08-30T16:56:31.138Z,43.91
2018-08-30T16:59:00.089Z,43.99
2018-08-30T17:01:28.937Z,44.39
2018-08-30T17:03:57.776Z,44.49
2018-08-30T17:06:26.783Z,44.63
2018-08-30T17:08:55.541Z,44.40
2018-08-30T17:11:24.382Z,44.89
2018-08-30T17:13:53.232Z,45.11
2018-08-30T17:16:22.068Z,45.64
2018-08-30T17:18:52.883Z,45.47
2018-08-30T17:21:21.705Z,46.34
2018-08-30T17:23:50.534Z,45.65
2018-08-30T17:26:19.368Z,45.73
2018-08-30T17:28:48.206Z,45.76
2018-08-30T17:31:17.105Z,46.07
2018-08-30T17:33:45.889Z,45.60
2018-08-30T17:36:14.727Z,45.67
2018-08-30T17:38:43.762Z,45.46
2018-08-30T17:41:12.494Z,45.29
2018-08-30T17:43:41.315Z,45.36
2018-08-30T17:46:10.186Z,45.98
2018-08-30T17:48:39.000Z,45.80
2018-08-30T17:51:07.870Z,47.14
2018-08-30T17:53:36.735Z,45.94
2018-08-30T17:56:05.915Z,46.23
2018-08-30T17:58:34.664Z,46.23
2018-08-30T18:01:03.517Z,46.95
2018-08-30T18:03:32.354Z,47.13
2018-08-30T18:06:01.183Z,47.88
2018-08-30T18:08:30.008Z,48.18
2018-08-30T18:10:58.864Z,48.15
2018-08-30T18:13:27.712Z,48.91
2018-08-30T18:15:56.543Z,50.15
2018-08-30T18:18:25.415Z,50.94
2018-08-30T18:20:54.230Z,50.29
2018-08-30T18:23:23.066Z,50.71
2018-08-30T18:25:51.930Z,50.97
2018-08-30T18:28:20.777Z,51.67
2018-08-30T18:30:49.636Z,51.67
2018-08-30T18:33:18.462Z,52.34
2018-08-30T18:35:47.312Z,52.62
2018-08-30T18:38:16.130Z,53.96
2018-08-30T18:40:44.956Z,54.37
2018-08-30T18:43:13.824Z,54.88
2018-08-30T18:45:42.672Z,54.85
2018-08-30T18:48:11.511Z,54.75
2018-08-30T18:50:40.400Z,54.75
2018-08-30T18:53:09.262Z,55.69
2018-08-30T18:55:38.081Z,56.48
2018-08-30T18:58:06.921Z,56.01
2018-08-30T19:00:35.756Z,56.50
2018-08-30T19:03:04.601Z,57.03
2018-08-30T19:05:33.435Z,57.74
2018-08-30T19:08:02.276Z,58.41
2018-08-30T19:10:31.101Z,58.27
2018-08-30T19:12:59.945Z,58.92
2018-08-30T19:15:46.596Z,59.07
2018-08-30T19:18:33.193Z,59.05
2018-08-30T19:21:02.048Z,59.01
2018-08-30T19:23:30.869Z,59.28
2018-08-30T19:25:59.703Z,59.76
2018-08-30T19:28:28.555Z,59.96
2018-08-30T19:30:57.374Z,60.18
2018-08-30T19:33:26.238Z,59.51
2018-08-30T19:36:13.197Z,60.76
2018-08-30T19:38:42.108Z,61.00
2018-08-30T19:41:21.123Z,61.20
2018-08-30T19:43:51.039Z,61.65
2018-08-30T19:46:20.443Z,62.10
2018-08-30T19:48:49.290Z,62.55
2018-08-30T19:51:18.146Z,62.69
2018-08-30T19:53:46.997Z,62.84
2018-08-30T19:56:16.083Z,63.22
2018-08-30T19:58:44.935Z,63.43
2018-08-30T20:01:13.798Z,63.34
2018-08-30T20:03:42.631Z,63.22
2018-08-30T20:06:11.505Z,63.66
2018-08-30T20:08:40.382Z,63.79
2018-08-30T20:11:09.291Z,63.99
2018-08-30T20:13:38.136Z,64.04
2018-08-30T20:16:06.980Z,64.13
2018-08-30T20:18:35.809Z,64.13
2018-08-30T20:21:04.649Z,64.19
2018-08-30T20:23:33.859Z,64.70
2018-08-30T20:26:03.556Z,65.06
2018-08-30T20:28:32.939Z,64.39
2018-08-30T20:31:01.769Z,65.50
2018-08-30T20:33:30.635Z,65.58
2018-08-30T20:35:59.523Z,65.43
2018-08-30T20:38:28.390Z,65.50
2018-08-30T20:40:57.279Z,65.96
2018-08-30T20:43:26.069Z,65.16
2018-08-30T20:45:54.909Z,66.15
2018-08-30T20:48:23.763Z,65.12
2018-08-30T20:50:52.609Z,66.24
2018-08-30T20:53:21.471Z,65.59
2018-08-30T20:55:50.334Z,67.02
2018-08-30T20:58:19.250Z,67.17
2018-08-30T21:00:48.116Z,67.19
2018-08-30T21:03:16.959Z,67.58
2018-08-30T21:05:45.830Z,67.46
2018-08-30T21:08:14.661Z,67.49
2018-08-30T21:10:43.496Z,67.96
2018-08-30T21:13:12.357Z,68.37
2018-08-30T21:15:41.191Z,68.60
2018-08-30T21:18:10.021Z,68.68
2018-08-30T21:20:38.853Z,68.74
2018-08-30T21:23:07.712Z,68.88
2018-08-30T21:25:36.539Z,68.93
2018-08-30T21:28:05.731Z,68.00
2018-08-30T21:30:34.604Z,68.86
2018-08-30T21:33:03.479Z,69.00
2018-08-30T21:35:32.341Z,69.04
2018-08-30T21:38:01.175Z,69.67
2018-08-30T21:40:30.061Z,69.24
2018-08-30T21:42:58.891Z,69.59
2018-08-30T21:45:27.749Z,69.60
2018-08-30T21:47:56.599Z,69.64
2018-08-30T21:50:25.517Z,70.18
2018-08-30T21:52:54.324Z,69.57
2018-08-30T21:55:23.173Z,70.09
2018-08-30T21:57:52.005Z,70.28
2018-08-30T22:00:20.845Z,70.08
2018-08-30T22:02:49.818Z,70.26
2018-08-30T22:05:18.538Z,69.14
2018-08-30T22:07:47.382Z,69.93
2018-08-30T22:10:16.219Z,69.86
2018-08-30T22:12:45.074Z,69.47
2018-08-30T22:15:13.908Z,68.43
2018-08-30T22:17:42.752Z,69.76
2018-08-30T22:20:11.572Z,69.97
2018-08-30T22:22:40.420Z,70.37
2018-08-30T22:25:09.265Z,70.35
2018-08-30T22:27:38.170Z,70.14
2018-08-30T22:30:08.689Z,70.20
2018-08-30T22:32:37.566Z,70.43
2018-08-30T22:35:06.846Z,70.58
2018-08-30T22:37:36.100Z,70.72
2018-08-30T22:40:05.362Z,70.55
2018-08-30T22:42:34.145Z,70.86
2018-08-30T22:45:03.617Z,71.06
2018-08-30T22:47:32.669Z,71.30
2018-08-30T22:50:01.535Z,71.29
2018-08-30T22:52:30.455Z,71.44
2018-08-30T22:54:59.292Z,71.60
2018-08-30T22:57:28.213Z,71.83
2018-08-30T22:59:57.026Z,72.24
2018-08-30T23:02:25.866Z,72.00
2018-08-30T23:04:55.614Z,72.10
2018-08-30T23:07:24.475Z,71.35
2018-08-30T23:09:53.338Z,72.20
2018-08-30T23:12:22.202Z,71.89
2018-08-30T23:14:51.057Z,72.02
2018-08-30T23:17:19.893Z,72.33
2018-08-30T23:19:48.784Z,72.59
2018-08-30T23:22:17.614Z,72.46
2018-08-30T23:24:46.515Z,72.75
2018-08-30T23:27:15.375Z,72.27
2018-08-30T23:29:44.202Z,72.72
2018-08-30T23:32:13.038Z,72.55
2018-08-30T23:34:41.887Z,72.52
2018-08-30T23:37:10.733Z,72.46
2018-08-30T23:39:39.575Z,72.49
2018-08-30T23:42:08.428Z,72.40
2018-08-30T23:44:37.315Z,72.49
2018-08-30T23:47:06.230Z,72.44
2018-08-30T23:49:35.069Z,71.27
2018-08-30T23:52:03.909Z,72.39
2018-08-30T23:54:32.837Z,72.53
2018-08-30T23:57:01.680Z,72.69
